createdAt,value
2022-11-02T00:01:16.841Z,80.35
2022-11-02T00:04:22.793Z,80.21
2022-11-02T00:07:28.503Z,79.85
2022-11-02T00:10:34.222Z,80.19
2022-11-02T00:13:39.895Z,80.98
2022-11-02T00:16:48.347Z,81.22
2022-11-02T00:19:54.321Z,81.14
2022-11-02T00:23:06.791Z,81.02
2022-11-02T00:26:13.376Z,81.59
2022-11-02T00:29:21.094Z,82.40
2022-11-02T00:32:29.931Z,82.01
2022-11-02T00:35:37.758Z,82.06
2022-11-02T00:38:43.793Z,81.72
2022-11-02T00:41:49.531Z,81.07
2022-11-02T00:44:55.398Z,81.11
2022-11-02T00:48:04.018Z,81.25
2022-11-02T00:51:09.969Z,80.75
2022-11-02T00:54:15.926Z,80.86
2022-11-02T00:57:21.847Z,81.60
2022-11-02T01:00:27.612Z,80.55
2022-11-02T01:03:36.048Z,80.43
2022-11-02T01:06:41.711Z,81.30
2022-11-02T01:09:47.419Z,80.26
2022-11-02T01:12:57.337Z,80.07
2022-11-02T01:16:14.787Z,80.26
2022-11-02T01:19:24.552Z,79.88
2022-11-02T01:22:39.005Z,79.17
2022-11-02T01:25:48.809Z,79.65
2022-11-02T01:28:59.250Z,79.82
2022-11-02T01:32:11.137Z,79.58
2022-11-02T01:35:19.792Z,79.71
2022-11-02T01:38:25.631Z,79.92
2022-11-02T01:41:31.518Z,79.69
2022-11-02T01:44:41.294Z,80.36
2022-11-02T01:47:52.323Z,80.25
2022-11-02T01:51:04.394Z,80.29
2022-11-02T01:54:24.668Z,80.96
2022-11-02T01:57:34.573Z,80.46
2022-11-02T02:00:42.208Z,80.36
2022-11-02T02:03:50.303Z,80.79
2022-11-02T02:07:08.684Z,80.87
2022-11-02T02:10:15.558Z,80.72
2022-11-02T02:13:22.917Z,81.27
2022-11-02T02:21:01.623Z,81.88
2022-11-02T02:24:32.261Z,82.12
2022-11-02T02:28:07.481Z,82.32
2022-11-02T02:31:25.093Z,82.38
2022-11-02T02:34:42.115Z,81.83
2022-11-02T02:37:58.538Z,81.42
2022-11-02T02:41:17.773Z,81.10
2022-11-02T02:44:36.237Z,81.11
2022-11-02T02:47:52.819Z,80.77
2022-11-02T02:51:08.228Z,81.71
2022-11-02T02:54:24.670Z,81.80
2022-11-02T02:57:37.685Z,82.08
2022-11-02T03:00:48.705Z,82.68
2022-11-02T03:03:55.474Z,82.81
2022-11-02T03:07:07.958Z,83.04
2022-11-02T03:10:25.178Z,82.13
2022-11-02T03:14:06.514Z,81.52
2022-11-02T03:17:21.903Z,80.94
2022-11-02T03:20:47.450Z,81.50
2022-11-02T03:24:04.944Z,82.24
2022-11-02T03:27:25.992Z,81.52
2022-11-02T03:30:45.140Z,81.74
2022-11-02T03:34:11.608Z,81.84
2022-11-02T03:37:25.103Z,82.04
2022-11-02T03:40:42.380Z,81.78
2022-11-02T03:43:54.814Z,82.47
2022-11-02T03:47:04.091Z,82.45
2022-11-02T03:50:21.211Z,83.19
2022-11-02T03:53:41.942Z,83.50
2022-11-02T03:56:54.166Z,84.18
2022-11-02T04:00:11.617Z,84.03
2022-11-02T04:03:27.081Z,83.18
2022-11-02T04:06:37.972Z,83.39
2022-11-02T04:09:44.616Z,83.56
2022-11-02T04:13:05.660Z,84.41
2022-11-02T04:16:11.435Z,83.87
2022-11-02T04:19:36.836Z,83.89
2022-11-02T04:23:05.529Z,82.76
2022-11-02T04:26:11.273Z,82.30
2022-11-02T04:29:21.797Z,82.37
2022-11-02T04:32:40.617Z,82.70
2022-11-02T04:35:51.333Z,82.45
2022-11-02T04:38:58.674Z,81.78
2022-11-02T04:42:08.925Z,81.72
2022-11-02T04:45:17.518Z,81.05
2022-11-02T04:48:23.122Z,80.75
2022-11-02T04:51:31.757Z,80.66
2022-11-02T04:54:40.250Z,79.91
2022-11-02T04:57:48.445Z,80.46
2022-11-02T05:00:54.393Z,80.79
2022-11-02T05:04:00.697Z,81.14
2022-11-02T05:07:11.363Z,81.29
2022-11-02T05:10:23.613Z,80.92
2022-11-02T05:13:30.768Z,81.64
2022-11-02T05:16:38.570Z,82.00
2022-11-02T05:19:44.587Z,81.95
2022-11-02T05:22:50.352Z,82.21
2022-11-02T05:26:03.331Z,82.01
2022-11-02T05:29:10.901Z,81.25
2022-11-02T05:32:16.679Z,82.04
2022-11-02T05:35:22.401Z,82.28
2022-11-02T05:38:29.828Z,83.16
2022-11-02T05:41:40.930Z,83.62
2022-11-02T05:44:46.869Z,83.92
2022-11-02T05:47:52.846Z,84.49
2022-11-02T05:51:00.193Z,86.22
2022-11-02T05:54:18.053Z,86.84
2022-11-02T05:57:27.052Z,87.45
2022-11-02T06:00:32.718Z,87.16
2022-11-02T06:03:41.086Z,87.04
2022-11-02T06:06:47.324Z,87.39
2022-11-02T06:09:53.099Z,88.13
2022-11-02T06:13:06.575Z,88.69
2022-11-02T06:16:29.010Z,87.41
2022-11-02T06:19:34.618Z,86.60
2022-11-02T06:22:44.446Z,86.88
2022-11-02T06:26:05.218Z,86.09
2022-11-02T06:29:30.424Z,84.86
2022-11-02T06:32:50.600Z,84.79
2022-11-02T06:36:08.783Z,82.94
2022-11-02T06:39:27.873Z,82.23
2022-11-02T06:43:03.342Z,81.51
2022-11-02T06:46:35.716Z,80.85
2022-11-02T06:49:59.038Z,80.32
2022-11-02T06:53:04.935Z,79.81
2022-11-02T06:56:12.641Z,79.65
2022-11-02T06:59:29.853Z,78.47
2022-11-02T07:02:38.521Z,77.57
2022-11-02T07:05:44.251Z,76.99
2022-11-02T07:08:49.890Z,76.25
2022-11-02T07:12:13.884Z,74.41
2022-11-02T07:15:20.280Z,72.62
2022-11-02T07:18:29.861Z,69.87
2022-11-02T07:21:35.670Z,65.94
2022-11-02T07:24:41.453Z,64.93
2022-11-02T07:27:53.914Z,61.55
2022-11-02T07:31:07.069Z,60.06
2022-11-02T07:34:21.283Z,57.65
2022-11-02T07:37:27.013Z,55.60
2022-11-02T07:40:35.062Z,53.61
2022-11-02T07:43:43.277Z,53.64
2022-11-02T07:47:12.933Z,52.94
2022-11-02T07:50:29.961Z,52.11
2022-11-02T07:53:36.570Z,50.96
2022-11-02T07:56:42.283Z,48.94
2022-11-02T07:59:47.969Z,49.72
2022-11-02T08:02:58.247Z,49.81
2022-11-02T08:06:07.480Z,48.61
2022-11-02T08:09:13.539Z,48.88
2022-11-02T08:12:19.277Z,49.40
2022-11-02T08:15:30.691Z,49.79
2022-11-02T08:18:36.577Z,50.80
2022-11-02T08:21:44.831Z,51.04
2022-11-02T08:24:50.600Z,51.06
2022-11-02T08:28:01.022Z,49.77
2022-11-02T08:31:10.345Z,49.77
2022-11-02T08:34:16.282Z,50.78
2022-11-02T08:37:24.570Z,49.29
2022-11-02T08:40:30.972Z,48.49
2022-11-02T08:43:36.957Z,48.77
2022-11-02T08:46:44.486Z,50.16
2022-11-02T08:49:51.900Z,49.08
2022-11-02T08:53:00.259Z,49.53
2022-11-02T08:56:10.083Z,50.20
2022-11-02T08:59:16.021Z,50.51
2022-11-02T09:02:21.895Z,48.86
2022-11-02T09:05:27.801Z,47.60
2022-11-02T09:08:38.032Z,49.10
2022-11-02T09:11:45.638Z,48.81
2022-11-02T09:14:51.368Z,48.17
2022-11-02T09:17:57.364Z,47.26
2022-11-02T09:21:06.218Z,48.01
2022-11-02T09:24:14.891Z,46.35
2022-11-02T09:27:20.546Z,44.58
2022-11-02T09:30:27.183Z,42.96
2022-11-02T09:33:34.397Z,42.71
2022-11-02T09:36:40.150Z,42.19
2022-11-02T09:39:59.104Z,39.88
2022-11-02T09:43:21.545Z,39.94
2022-11-02T09:46:34.180Z,40.09
2022-11-02T09:49:40.559Z,39.40
2022-11-02T09:52:53.056Z,38.94
2022-11-02T09:56:07.999Z,40.47
2022-11-02T09:59:18.985Z,41.10
2022-11-02T10:02:55.752Z,41.29
2022-11-02T10:06:15.840Z,41.14
2022-11-02T10:09:36.514Z,39.69
2022-11-02T10:13:08.128Z,38.99
2022-11-02T10:16:22.611Z,37.66
2022-11-02T10:19:33.675Z,37.39
2022-11-02T10:22:45.475Z,36.33
2022-11-02T10:25:52.359Z,36.72
2022-11-02T10:29:15.139Z,35.74
2022-11-02T10:32:21.162Z,35.79
2022-11-02T10:35:57.689Z,36.77
2022-11-02T10:39:28.329Z,37.67
2022-11-02T10:42:58.683Z,37.82
2022-11-02T10:46:33.115Z,38.07
2022-11-02T10:50:14.692Z,38.92
2022-11-02T10:53:40.500Z,38.71
2022-11-02T10:56:49.642Z,39.46
2022-11-02T11:00:27.069Z,39.20
2022-11-02T11:03:35.258Z,38.56
2022-11-02T11:06:45.565Z,39.57
2022-11-02T11:09:57.039Z,40.19
2022-11-02T11:13:03.988Z,40.15
2022-11-02T11:16:14.788Z,40.68
2022-11-02T11:19:39.180Z,40.73
2022-11-02T11:22:45.802Z,39.63
2022-11-02T11:26:02.133Z,41.13
2022-11-02T11:29:26.258Z,41.38
2022-11-02T11:32:35.465Z,39.51
2022-11-02T11:35:50.121Z,38.57
2022-11-02T11:39:01.822Z,38.75
2022-11-02T11:42:18.235Z,39.53
2022-11-02T11:45:29.166Z,38.80
2022-11-02T11:48:42.508Z,37.79
2022-11-02T11:51:55.764Z,36.60
2022-11-02T11:55:03.548Z,37.20
2022-11-02T11:58:16.830Z,37.30
2022-11-02T12:01:25.384Z,37.91
2022-11-02T12:04:35.163Z,38.84
2022-11-02T12:08:16.875Z,38.58
2022-11-02T12:11:42.553Z,39.16
2022-11-02T12:15:10.356Z,39.83
2022-11-02T12:18:43.759Z,41.04
2022-11-02T12:22:09.634Z,41.95
2022-11-02T12:25:47.365Z,43.65
2022-11-02T12:29:19.478Z,44.40
2022-11-02T12:33:01.355Z,45.53
2022-11-02T12:36:31.203Z,47.48
2022-11-02T12:40:06.398Z,47.53
2022-11-02T12:43:39.891Z,46.63
2022-11-02T12:46:58.989Z,47.39
2022-11-02T12:50:21.479Z,48.50
2022-11-02T12:53:45.184Z,49.93
2022-11-02T12:56:54.768Z,50.96
2022-11-02T13:00:09.837Z,50.58
2022-11-02T13:03:38.726Z,51.32
2022-11-02T13:06:51.583Z,52.64
2022-11-02T13:10:08.997Z,52.70
2022-11-02T13:13:21.097Z,53.44
2022-11-02T13:16:44.220Z,53.46
2022-11-02T13:19:58.510Z,53.25
2022-11-02T13:23:20.177Z,52.49
2022-11-02T13:26:37.901Z,52.38
2022-11-02T13:29:51.022Z,53.14
2022-11-02T13:33:07.979Z,52.90
2022-11-02T13:36:17.475Z,53.56
2022-11-02T13:39:39.986Z,53.65
2022-11-02T13:43:38.362Z,54.29
2022-11-02T13:47:15.322Z,54.80
2022-11-02T13:50:29.257Z,54.78
2022-11-02T13:53:43.897Z,54.72
2022-11-02T13:56:55.403Z,55.30
2022-11-02T14:00:01.763Z,55.57
2022-11-02T14:03:21.326Z,55.96
2022-11-02T14:06:29.995Z,57.27
2022-11-02T14:09:43.137Z,57.26
2022-11-02T14:12:51.259Z,56.63
2022-11-02T14:15:56.984Z,56.48
2022-11-02T14:19:28.290Z,56.94
2022-11-02T14:22:36.441Z,56.77
2022-11-02T14:25:51.311Z,56.66
2022-11-02T14:28:56.959Z,57.35
2022-11-02T14:32:20.543Z,57.42
2022-11-02T14:35:44.269Z,58.02
2022-11-02T14:39:11.271Z,58.85
2022-11-02T14:42:49.968Z,59.10
2022-11-02T14:46:21.377Z,59.51
2022-11-02T14:49:34.036Z,60.30
2022-11-02T14:52:41.511Z,60.76
2022-11-02T14:55:58.579Z,60.51
2022-11-02T14:59:04.963Z,60.62
2022-11-02T15:02:26.396Z,61.25
2022-11-02T15:05:38.931Z,61.55
2022-11-02T15:08:56.024Z,62.01
2022-11-02T15:12:23.373Z,62.40
2022-11-02T15:15:35.876Z,63.07
2022-11-02T15:18:42.654Z,63.81
2022-11-02T15:21:49.024Z,63.31
2022-11-02T15:24:59.685Z,63.71
2022-11-02T15:28:31.172Z,63.42
2022-11-02T15:31:59.944Z,63.97
2022-11-02T15:35:06.982Z,64.24
2022-11-02T15:38:19.959Z,64.23
2022-11-02T15:41:41.682Z,65.04
2022-11-02T15:45:46.852Z,65.35
2022-11-02T15:49:06.706Z,65.35
2022-11-02T15:53:01.621Z,65.19
2022-11-02T15:56:29.872Z,65.43
2022-11-02T16:00:07.087Z,65.11
2022-11-02T16:03:21.605Z,65.15
2022-11-02T16:06:31.955Z,65.09
2022-11-02T16:09:41.355Z,64.82
2022-11-02T16:12:47.104Z,64.90
2022-11-02T16:16:04.510Z,65.12
2022-11-02T16:19:23.589Z,64.62
2022-11-02T16:22:30.739Z,64.88
2022-11-02T16:25:40.976Z,64.64
2022-11-02T16:28:54.179Z,64.85
2022-11-02T16:32:00.158Z,63.98
2022-11-02T16:35:19.867Z,62.81
2022-11-02T16:38:27.284Z,63.29
2022-11-02T16:41:38.987Z,62.90
2022-11-02T16:47:55.164Z,63.05
2022-11-02T16:51:19.308Z,61.89
2022-11-02T16:54:44.153Z,60.58
2022-11-02T16:57:49.832Z,59.77
2022-11-02T17:01:06.324Z,58.34
2022-11-02T17:04:24.625Z,57.73
2022-11-02T17:07:39.172Z,57.76
2022-11-02T17:10:47.746Z,56.95
2022-11-02T17:14:00.219Z,57.38
2022-11-02T17:17:38.329Z,57.10
2022-11-02T17:20:44.115Z,57.50
2022-11-02T17:23:54.098Z,57.16
2022-11-02T17:27:20.963Z,56.91
2022-11-02T17:30:52.779Z,57.42
2022-11-02T17:34:09.311Z,57.30
2022-11-02T17:37:27.590Z,57.54
2022-11-02T17:40:35.744Z,57.81
2022-11-02T17:43:41.295Z,57.85
2022-11-02T17:46:46.943Z,58.41
2022-11-02T17:49:52.465Z,58.31
2022-11-02T17:52:59.837Z,58.29
2022-11-02T17:56:08.829Z,58.47
2022-11-02T17:59:17.206Z,58.12
2022-11-02T18:02:22.831Z,58.75
2022-11-02T18:05:31.679Z,58.44
2022-11-02T18:08:58.146Z,58.60
2022-11-02T18:12:06.746Z,58.38
2022-11-02T18:15:23.380Z,58.82
2022-11-02T18:18:28.961Z,58.87
2022-11-02T18:21:34.451Z,58.42
2022-11-02T18:24:40.845Z,58.79
2022-11-02T18:27:50.273Z,59.01
2022-11-02T18:30:57.027Z,58.75
2022-11-02T18:34:02.687Z,58.99
2022-11-02T18:37:08.309Z,58.87
2022-11-02T18:40:17.848Z,58.55
2022-11-02T18:43:26.051Z,58.53
2022-11-02T18:46:32.536Z,58.60
2022-11-02T18:49:38.174Z,58.91
2022-11-02T18:52:51.864Z,58.86
2022-11-02T18:55:57.643Z,58.94
2022-11-02T18:59:06.744Z,59.27
2022-11-02T19:02:14.706Z,59.56
2022-11-02T19:05:33.230Z,59.92
2022-11-02T19:08:51.095Z,60.01
2022-11-02T19:12:05.934Z,60.59
2022-11-02T19:15:14.326Z,60.36
2022-11-02T19:18:19.928Z,60.25
2022-11-02T19:21:25.618Z,60.28
2022-11-02T19:24:32.033Z,60.26
2022-11-02T19:27:37.711Z,60.22
2022-11-02T19:30:45.890Z,59.67
2022-11-02T19:34:01.242Z,59.68
2022-11-02T19:37:14.892Z,59.56
2022-11-02T19:40:20.820Z,59.42
2022-11-02T19:43:26.626Z,59.26
2022-11-02T19:46:35.339Z,58.96
2022-11-02T19:49:41.319Z,58.60
2022-11-02T19:52:51.188Z,58.72
2022-11-02T19:55:58.919Z,58.58
2022-11-02T19:59:06.151Z,58.59
2022-11-02T20:02:15.263Z,58.44
2022-11-02T20:05:32.624Z,58.72
2022-11-02T20:08:39.129Z,58.94
2022-11-02T20:11:45.679Z,59.11
2022-11-02T20:14:51.279Z,59.03
2022-11-02T20:18:18.292Z,59.32
2022-11-02T20:21:32.359Z,59.24
2022-11-02T20:24:39.972Z,59.25
2022-11-02T20:27:45.779Z,59.65
2022-11-02T20:30:51.491Z,59.92
2022-11-02T20:33:59.752Z,59.61
2022-11-02T20:37:06.747Z,59.46
2022-11-02T20:40:16.086Z,59.60
2022-11-02T20:43:22.240Z,59.44
2022-11-02T20:46:37.528Z,59.86
2022-11-02T20:49:50.959Z,59.95
2022-11-02T20:52:58.826Z,60.38
2022-11-02T20:56:17.283Z,60.32
2022-11-02T20:59:36.549Z,59.86
2022-11-02T21:02:42.030Z,60.17
2022-11-02T21:05:52.736Z,60.10
2022-11-02T21:09:09.160Z,60.47
2022-11-02T21:12:34.020Z,60.17
2022-11-02T21:15:39.810Z,60.31
2022-11-02T21:18:45.652Z,60.24
2022-11-02T21:21:59.411Z,60.21
2022-11-02T21:25:10.468Z,60.14
2022-11-02T21:28:16.165Z,59.66
2022-11-02T21:31:26.282Z,59.89
2022-11-02T21:34:31.865Z,59.55
2022-11-02T21:37:40.083Z,60.38
2022-11-02T21:40:48.552Z,60.38
2022-11-02T21:43:55.752Z,59.87
2022-11-02T21:47:01.411Z,59.91
2022-11-02T21:50:10.572Z,59.90
2022-11-02T21:53:18.830Z,60.57
2022-11-02T21:56:34.320Z,60.70
2022-11-02T21:59:39.865Z,60.85
2022-11-02T22:02:42.920Z,61.27
2022-11-02T22:05:59.728Z,61.19
2022-11-02T22:09:11.035Z,61.19
2022-11-02T22:12:29.026Z,61.71
2022-11-02T22:15:37.483Z,61.99
2022-11-02T22:18:45.781Z,63.01
2022-11-02T22:21:51.609Z,63.28
2022-11-02T22:25:00.280Z,63.45
2022-11-02T22:28:06.340Z,63.90
2022-11-02T22:31:16.242Z,64.19
2022-11-02T22:34:22.053Z,64.27
2022-11-02T22:37:40.249Z,64.25
2022-11-02T22:40:48.721Z,64.73
2022-11-02T22:43:57.966Z,64.73
2022-11-02T22:47:03.970Z,64.82
2022-11-02T22:50:11.277Z,64.84
2022-11-02T22:53:17.041Z,64.56
2022-11-02T22:56:27.447Z,64.61
2022-11-02T22:59:33.331Z,64.26
2022-11-02T23:02:39.283Z,63.85
2022-11-02T23:05:46.320Z,63.62
2022-11-02T23:08:54.584Z,63.74
2022-11-02T23:12:03.223Z,63.62
2022-11-02T23:15:09.991Z,63.49
2022-11-02T23:18:15.901Z,63.36
2022-11-02T23:21:19.005Z,63.70
2022-11-02T23:24:37.209Z,63.61
2022-11-02T23:28:00.884Z,63.75
2022-11-02T23:31:18.896Z,64.37
2022-11-02T23:34:24.460Z,64.69
2022-11-02T23:37:27.555Z,64.44
2022-11-02T23:40:33.707Z,64.56
2022-11-02T23:43:42.446Z,65.10
2022-11-02T23:46:51.376Z,65.25
2022-11-02T23:49:56.967Z,66.03
2022-11-02T23:53:15.011Z,66.17
2022-11-02T23:56:47.200Z,66.62
2022-11-02T23:59:55.660Z,66.46
